Time;durP1;ratioP1;P1;durP2;ratioP2;P2;SDS_P1;SDS_P2;PMS_P1;PMS_P2;Temp;Humidity;BMP_temperature;BMP_pressure;BME280_temperature;BME280_humidity;BME280_pressure;Samples;Min_cycle;Max_cycle;Signal;HPM_P1;HPM_P2
2022/12/17 13:06:54;;;;;;;41.80;19.48;;;21.90;51.40;;;;;;4876120;28;86323;-88
2022/12/17 13:09:21;;;;;;;39.10;19.23;;;21.90;51.50;;;;;;4858330;28;86494;-87
2022/12/17 13:11:48;;;;;;;39.00;18.73;;;21.90;51.90;;;;;;4873399;28;86631;-88
2022/12/17 13:14:49;;;;;;;39.60;18.58;;;21.80;52.30;;;;;;4880806;28;89451;-86
2022/12/17 13:17:18;;;;;;;39.65;19.80;;;21.80;52.80;;;;;;4864648;28;86792;-86
2022/12/17 13:20:04;;;;;;;34.20;16.10;;;21.80;52.70;;;;;;4867814;28;86031;-85
2022/12/17 13:22:32;;;;;;;30.05;17.35;;;21.80;52.90;;;;;;4816514;29;90009;-86
2022/12/17 13:25:21;;;;;;;44.47;21.40;;;21.90;53.10;;;;;;4817405;29;87728;-85
2022/12/17 13:27:48;;;;;;;31.55;17.73;;;21.90;53.00;;;;;;4817749;29;86520;-87
2022/12/17 13:30:37;;;;;;;34.63;17.00;;;22.00;52.80;;;;;;4819138;29;85832;-87
2022/12/17 13:33:28;;;;;;;39.45;17.20;;;22.10;52.70;;;;;;4835273;29;86398;-85
2022/12/17 13:36:31;;;;;;;34.85;16.83;;;22.10;51.70;;;;;;4854840;29;90552;-87
2022/12/17 13:39:22;;;;;;;31.75;17.17;;;22.20;52.50;;;;;;4855323;29;86243;-86
2022/12/17 13:41:53;;;;;;;31.02;15.35;;;22.10;52.70;;;;;;4854948;29;85868;-87
2022/12/17 13:44:24;;;;;;;27.08;16.30;;;22.20;52.80;;;;;;4857268;28;86432;-85
2022/12/17 13:46:51;;;;;;;35.35;15.55;;;22.20;52.80;;;;;;4874826;28;87445;-84
2022/12/17 13:49:28;;;;;;;33.28;16.50;;;22.10;52.70;;;;;;4874484;28;86373;-83
2022/12/17 13:52:01;;;;;;;32.78;16.20;;;22.10;53.00;;;;;;4859931;28;86392;-85
2022/12/17 13:54:27;;;;;;;37.00;15.82;;;22.10;53.10;;;;;;4922722;28;86332;-84
2022/12/17 13:56:53;;;;;;;31.60;15.27;;;22.10;53.20;;;;;;4954463;28;87798;-85
2022/12/17 13:59:24;;;;;;;32.83;15.43;;;22.10;53.40;;;;;;4946442;28;89692;-84
2022/12/17 14:01:53;;;;;;;30.90;15.43;;;22.10;53.60;;;;;;4993794;28;86632;-84
2022/12/17 14:04:29;;;;;;;33.65;15.23;;;22.20;54.10;;;;;;4974386;28;85925;-84
2022/12/17 14:07:02;;;;;;;27.23;14.10;;;22.10;54.00;;;;;;4973766;28;86580;-85
2022/12/17 14:09:34;;;;;;;31.77;15.20;;;22.10;54.10;;;;;;4974553;28;86164;-84
2022/12/17 14:12:22;;;;;;;30.65;15.07;;;22.10;54.20;;;;;;4977643;28;86650;-82
2022/12/17 14:14:57;;;;;;;32.40;14.77;;;22.00;54.20;;;;;;5031490;27;87000;-85
2022/12/17 14:17:26;;;;;;;32.80;14.88;;;22.00;54.70;;;;;;5016683;27;87487;-85
2022/12/17 14:20:05;;;;;;;30.45;15.45;;;21.90;54.60;;;;;;5016505;28;87039;-86
2022/12/17 14:22:33;;;;;;;37.03;14.00;;;21.90;54.70;;;;;;5031861;28;90470;-85
2022/12/17 14:24:59;;;;;;;36.17;14.25;;;21.90;54.40;;;;;;5005988;28;87224;-86
2022/12/17 14:27:33;;;;;;;36.70;13.48;;;21.90;54.30;;;;;;5015431;27;86593;-87
2022/12/17 14:30:00;;;;;;;27.30;14.02;;;21.90;54.40;;;;;;5015039;27;86376;-83
2022/12/17 14:32:34;;;;;;;35.03;13.38;;;21.90;54.60;;;;;;5005478;28;87072;-85
2022/12/17 14:35:00;;;;;;;27.20;13.00;;;21.90;54.60;;;;;;5014948;27;86120;-85
2022/12/17 14:37:27;;;;;;;35.50;13.88;;;21.90;54.80;;;;;;5016115;28;86527;-84
2022/12/17 14:39:59;;;;;;;30.50;14.18;;;22.00;54.80;;;;;;5015210;27;86249;-85
2022/12/17 14:42:25;;;;;;;26.75;13.52;;;22.00;55.00;;;;;;5015423;27;86108;-86
2022/12/17 14:45:05;;;;;;;34.20;13.10;;;22.10;54.60;;;;;;5012835;27;86106;-86
2022/12/17 14:47:36;;;;;;;28.17;13.95;;;22.10;54.80;;;;;;5015102;27;88935;-86
2022/12/17 14:50:13;;;;;;;27.55;13.63;;;22.10;54.90;;;;;;5015833;27;85866;-85
2022/12/17 14:52:53;;;;;;;25.13;13.73;;;22.00;55.10;;;;;;5014470;28;87736;-85
2022/12/17 14:55:50;;;;;;;24.92;13.18;;;22.00;55.30;;;;;;5022764;28;86930;-83
2022/12/17 14:58:18;;;;;;;25.00;13.73;;;22.00;55.90;;;;;;5015356;27;86901;-84
2022/12/17 15:01:04;;;;;;;29.27;14.97;;;22.00;56.80;;;;;;5011143;28;88319;-84
2022/12/17 15:03:32;;;;;;;33.45;14.85;;;21.90;58.10;;;;;;5012059;27;86669;-85
2022/12/17 15:06:02;;;;;;;25.77;15.00;;;21.80;58.10;;;;;;5013003;27;86259;-85
2022/12/17 15:08:29;;;;;;;;;;;21.70;57.10;;;;;;5011188;28;89288;-82
2022/12/17 15:10:57;;;;;;;29.88;17.70;;;21.60;57.50;;;;;;5015219;28;86933;-83
2022/12/17 15:13:22;;;;;;;32.10;21.20;;;21.60;55.10;;;;;;5013863;27;86388;-83
2022/12/17 15:15:48;;;;;;;35.70;24.08;;;21.50;53.20;;;;;;5014240;27;86123;-83
2022/12/17 15:18:14;;;;;;;36.03;24.08;;;21.40;51.00;;;;;;5014861;27;87416;-82
2022/12/17 15:20:39;;;;;;;36.10;23.13;;;21.40;51.00;;;;;;5015095;27;86093;-81
2022/12/17 15:23:08;;;;;;;40.25;24.73;;;21.40;50.30;;;;;;5013985;27;86515;-83
2022/12/17 15:25:33;;;;;;;43.97;25.63;;;21.50;50.40;;;;;;5015582;28;85812;-84
2022/12/17 15:27:59;;;;;;;36.25;20.98;;;21.50;48.20;;;;;;5015106;27;87432;-83
2022/12/17 15:30:25;;;;;;;35.83;19.90;;;21.60;49.00;;;;;;5015522;27;86351;-91
2022/12/17 15:32:50;;;;;;;30.60;19.08;;;21.70;49.80;;;;;;5015717;27;85812;-89
2022/12/17 15:35:28;;;;;;;45.53;18.33;;;21.80;50.30;;;;;;5014741;27;85741;-89
2022/12/17 15:37:54;;;;;;;37.28;17.60;;;21.80;51.30;;;;;;5005912;28;91173;-90
2022/12/17 15:40:19;;;;;;;26.75;16.30;;;21.90;51.60;;;;;;5016300;27;87408;-93
2022/12/17 15:45:30;;;;;;;33.80;20.33;;;22.00;49.30;;;;;;5015106;27;86017;-88
2022/12/17 15:47:55;;;;;;;33.10;19.42;;;21.90;49.60;;;;;;5015313;27;87412;-89
2022/12/17 15:50:24;;;;;;;31.35;19.63;;;21.90;50.60;;;;;;5014947;27;87063;-89
2022/12/17 15:52:50;;;;;;;33.80;19.17;;;21.80;50.00;;;;;;5013573;28;86156;-90
2022/12/17 15:55:16;;;;;;;33.17;16.38;;;21.80;50.80;;;;;;5014535;27;85806;-89
2022/12/17 15:57:42;;;;;;;27.67;16.65;;;21.90;51.20;;;;;;5014968;27;86383;-92
2022/12/17 16:00:08;;;;;;;30.27;17.20;;;21.90;50.10;;;;;;5012952;27;87106;-90
2022/12/17 16:02:35;;;;;;;31.27;17.45;;;21.90;50.40;;;;;;5014136;27;87606;-89
2022/12/17 16:05:12;;;;;;;40.35;16.48;;;21.90;50.90;;;;;;5014635;27;86127;-90
2022/12/17 16:07:37;;;;;;;39.75;16.85;;;22.10;52.30;;;;;;5016356;28;87483;-89
2022/12/17 16:10:05;;;;;;;23.33;15.32;;;22.20;52.40;;;;;;5015285;27;86188;-89
2022/12/17 16:12:30;;;;;;;25.05;14.93;;;22.40;53.00;;;;;;5029762;27;86592;-91
2022/12/17 16:14:56;;;;;;;26.15;15.18;;;22.40;52.90;;;;;;5021465;27;85786;-90
2022/12/17 16:17:22;;;;;;;28.38;15.70;;;22.50;53.10;;;;;;4976926;27;86831;-90
2022/12/17 16:19:47;;;;;;;35.65;15.38;;;22.60;53.40;;;;;;5029806;27;86479;-91
2022/12/17 16:22:13;;;;;;;28.83;14.90;;;22.60;53.20;;;;;;5015709;27;86133;-93
2022/12/17 16:24:39;;;;;;;28.95;16.80;;;22.60;53.50;;;;;;5014967;27;86062;-94
2022/12/17 16:27:05;;;;;;;27.50;15.27;;;22.40;52.50;;;;;;5015721;27;86442;-88
2022/12/17 16:29:31;;;;;;;26.55;15.05;;;22.40;52.90;;;;;;5011899;28;88635;-90
2022/12/17 16:31:57;;;;;;;25.88;13.50;;;22.40;53.30;;;;;;5010229;28;86437;-89
2022/12/17 16:34:23;;;;;;;24.90;14.82;;;22.40;53.20;;;;;;5009122;28;85992;-88
2022/12/17 16:36:49;;;;;;;30.70;14.32;;;22.40;53.30;;;;;;5016907;27;86793;-90
2022/12/17 16:39:17;;;;;;;35.45;16.13;;;22.30;54.10;;;;;;5018549;28;86859;-89
2022/12/17 16:41:43;;;;;;;29.30;14.70;;;22.20;54.50;;;;;;5018107;28;85803;-90
2022/12/17 16:44:09;;;;;;;39.38;16.50;;;22.20;55.10;;;;;;5013756;28;86841;-92
2022/12/17 16:46:37;;;;;;;29.38;14.00;;;22.30;54.40;;;;;;5018044;28;86362;-93
2022/12/17 16:49:14;;;;;;;23.83;14.80;;;22.40;55.50;;;;;;5005218;28;88669;-91
2022/12/17 16:51:43;;;;;;;27.83;14.65;;;22.40;54.60;;;;;;4979100;28;86156;-91
2022/12/17 16:54:24;;;;;;;38.95;15.52;;;22.40;54.40;;;;;;4952293;28;86407;-92
2022/12/17 16:56:51;;;;;;;26.80;14.38;;;22.50;54.60;;;;;;4962284;28;91016;-91
2022/12/17 16:59:17;;;;;;;34.60;14.98;;;22.50;53.90;;;;;;4965557;28;86855;-93
2022/12/17 17:01:46;;;;;;;30.60;14.77;;;22.60;54.20;;;;;;4962795;28;85805;-92
2022/12/17 17:04:13;;;;;;;32.38;15.15;;;22.50;54.00;;;;;;4953215;28;86646;-92
2022/12/17 17:09:36;;;;;;;30.02;17.40;;;22.40;53.40;;;;;;4992226;28;88620;-95
2022/12/17 17:12:10;;;;;;;21.35;13.95;;;22.20;53.20;;;;;;4991940;28;86398;-93
2022/12/17 17:14:36;;;;;;;30.55;15.45;;;22.20;54.50;;;;;;4977697;28;86142;-93
2022/12/17 17:17:02;;;;;;;30.20;15.45;;;22.10;54.50;;;;;;4955148;28;89278;-93
2022/12/17 17:19:28;;;;;;;27.00;14.63;;;22.00;55.00;;;;;;4968331;28;89275;-95
2022/12/17 17:21:53;;;;;;;28.88;14.43;;;22.00;55.60;;;;;;4969013;28;87421;-90
2022/12/17 17:24:21;;;;;;;24.45;14.43;;;21.90;55.90;;;;;;5031616;28;86233;-95
2022/12/17 17:26:48;;;;;;;29.20;14.73;;;21.80;56.20;;;;;;5014334;28;88331;-94
2022/12/17 17:29:13;;;;;;;25.55;13.68;;;21.80;56.40;;;;;;5023679;28;88964;-90
2022/12/17 17:31:39;;;;;;;25.92;13.52;;;21.90;55.90;;;;;;5035253;28;86215;-94
2022/12/17 17:34:09;;;;;;;25.17;13.95;;;22.00;56.10;;;;;;5034913;28;86469;-90
2022/12/17 17:36:43;;;;;;;25.30;15.90;;;22.00;54.60;;;;;;5020079;28;88527;-91
2022/12/17 17:39:09;;;;;;;29.13;17.33;;;22.00;49.80;;;;;;5003426;28;90445;-91
2022/12/17 17:41:35;;;;;;;26.58;16.42;;;22.00;50.80;;;;;;5022326;27;86115;-90
2022/12/17 17:44:07;;;;;;;25.83;16.20;;;21.90;52.90;;;;;;5021604;28;85786;-89
2022/12/17 17:46:33;;;;;;;29.17;14.82;;;21.90;54.00;;;;;;5021912;28;86031;-92
2022/12/17 17:49:00;;;;;;;24.13;14.88;;;22.00;54.40;;;;;;5022871;27;86362;-91
2022/12/17 17:51:30;;;;;;;26.65;15.73;;;22.10;54.50;;;;;;5020217;28;86490;-91
2022/12/17 17:53:55;;;;;;;24.63;15.15;;;22.10;54.60;;;;;;5005958;28;86443;-91
2022/12/17 17:56:30;;;;;;;20.55;13.45;;;22.20;55.30;;;;;;5005016;28;88942;-92
2022/12/17 17:59:06;;;;;;;19.70;13.48;;;22.20;55.60;;;;;;5022814;28;86293;-92
2022/12/17 18:01:42;;;;;;;22.85;14.25;;;22.20;55.30;;;;;;5005238;28;91627;-93
2022/12/17 18:04:10;;;;;;;25.52;14.48;;;22.30;55.60;;;;;;5022272;28;86071;-91
2022/12/17 18:06:39;;;;;;;23.08;14.48;;;22.30;55.50;;;;;;5006389;28;89817;-94
2022/12/17 18:09:07;;;;;;;27.98;14.02;;;22.30;54.70;;;;;;5034918;27;86281;-93
2022/12/17 18:11:33;;;;;;;25.60;14.85;;;22.30;52.60;;;;;;5029767;28;86060;-89
2022/12/17 18:14:00;;;;;;;25.95;17.65;;;22.30;51.80;;;;;;5033373;27;86186;-91
2022/12/17 18:16:44;;;;;;;30.77;16.42;;;22.10;49.50;;;;;;5013706;28;89860;-88
2022/12/17 18:19:14;;;;;;;25.40;15.75;;;22.10;50.80;;;;;;5020588;27;90029;-90
2022/12/17 18:21:40;;;;;;;29.33;15.75;;;22.10;51.80;;;;;;5033177;27;87100;-93
2022/12/17 18:24:10;;;;;;;20.23;14.18;;;22.00;53.00;;;;;;5033735;27;86389;-93
2022/12/17 18:26:38;;;;;;;24.25;15.95;;;21.90;52.30;;;;;;5033871;28;89588;-89
2022/12/17 18:29:09;;;;;;;22.17;16.10;;;21.70;51.50;;;;;;5025361;27;86392;-92
2022/12/17 18:31:35;;;;;;;28.27;15.10;;;21.60;52.20;;;;;;5050079;27;87981;-93
2022/12/17 18:34:02;;;;;;;19.63;15.45;;;21.50;52.90;;;;;;5033175;27;86109;-91
2022/12/17 18:36:30;;;;;;;27.90;15.82;;;21.40;52.90;;;;;;5034021;27;89541;-93
2022/12/17 18:39:03;;;;;;;21.83;15.40;;;21.30;53.10;;;;;;5031025;27;91947;-91
2022/12/17 18:44:14;;;;;;;21.00;14.25;;;21.30;52.80;;;;;;5027121;27;87636;-89
2022/12/17 18:46:40;;;;;;;19.25;14.07;;;21.60;52.90;;;;;;5036530;28;90686;-89
2022/12/17 18:49:12;;;;;;;22.50;14.38;;;21.80;52.90;;;;;;5035605;27;88663;-92
2022/12/17 18:51:42;;;;;;;16.02;13.35;;;21.90;52.70;;;;;;5033996;27;90890;-92
2022/12/17 18:54:12;;;;;;;20.77;14.32;;;22.00;52.80;;;;;;5033502;27;86909;-91
2022/12/17 18:56:37;;;;;;;17.95;14.00;;;22.00;52.20;;;;;;5033405;27;90715;-91
2022/12/17 18:59:04;;;;;;;19.15;13.65;;;21.90;51.80;;;;;;5034528;27;88786;-90
2022/12/17 19:01:32;;;;;;;20.98;13.65;;;21.90;51.80;;;;;;5034035;28;90081;-90
2022/12/17 19:04:02;;;;;;;15.03;12.47;;;21.90;51.90;;;;;;5035957;27;87036;-90
2022/12/17 19:06:28;;;;;;;17.40;12.10;;;21.80;52.40;;;;;;5033493;27;90382;-91
2022/12/17 19:08:53;;;;;;;16.58;12.98;;;21.70;52.50;;;;;;5034773;27;87405;-92
2022/12/17 19:11:20;;;;;;;19.38;12.95;;;21.50;52.60;;;;;;5034936;27;88305;-89
2022/12/17 19:13:47;;;;;;;16.92;12.35;;;21.50;52.70;;;;;;5025340;28;87859;-90
2022/12/17 19:16:22;;;;;;;18.38;11.90;;;21.40;53.00;;;;;;5033448;27;89605;-89
2022/12/17 19:18:56;;;;;;;17.60;12.40;;;21.30;53.10;;;;;;5034986;27;90310;-89
2022/12/17 19:21:23;;;;;;;17.92;12.70;;;21.30;53.00;;;;;;5052566;27;91383;-91
2022/12/17 19:23:49;;;;;;;20.15;12.88;;;21.40;53.00;;;;;;5038436;27;87844;-89
2022/12/17 19:26:17;;;;;;;23.75;13.45;;;21.50;52.90;;;;;;5034490;27;90344;-91
2022/12/17 19:28:48;;;;;;;17.92;12.82;;;21.50;52.80;;;;;;5033846;28;90040;-92
2022/12/17 19:31:14;;;;;;;18.05;12.23;;;21.50;52.80;;;;;;5035375;27;88394;-91
2022/12/17 19:33:40;;;;;;;21.60;12.13;;;21.70;52.50;;;;;;5040675;27;87014;-92
2022/12/17 19:36:11;;;;;;;16.45;12.30;;;21.70;52.30;;;;;;5028975;27;90149;-89
2022/12/17 19:38:37;;;;;;;15.18;11.82;;;21.80;52.30;;;;;;5034262;27;89555;-91
2022/12/17 19:41:07;;;;;;;15.13;11.43;;;21.70;52.30;;;;;;5033725;27;92011;-91
2022/12/17 19:43:33;;;;;;;17.20;12.95;;;21.60;52.60;;;;;;5034864;28;87293;-92
2022/12/17 19:46:08;;;;;;;17.17;11.48;;;21.60;52.90;;;;;;5034194;27;90115;-93
2022/12/17 19:48:45;;;;;;;15.43;11.63;;;21.60;53.10;;;;;;5037345;27;90852;-92
2022/12/17 19:51:18;;;;;;;18.75;11.82;;;21.50;52.50;;;;;;5064960;27;89668;-88
2022/12/17 19:53:45;;;;;;;18.35;11.77;;;21.50;52.90;;;;;;5021044;28;87429;-90
2022/12/17 19:56:15;;;;;;;18.95;12.15;;;21.50;52.80;;;;;;5025373;28;90489;-94
2022/12/17 19:58:42;;;;;;;17.80;12.18;;;21.30;53.20;;;;;;5019292;28;90870;-93
2022/12/17 20:01:19;;;;;;;16.52;12.20;;;21.20;53.50;;;;;;5016043;28;89443;-95
2022/12/17 20:03:45;;;;;;;17.05;12.20;;;21.20;53.60;;;;;;5039727;27;87935;-91
2022/12/17 20:06:13;;;;;;;20.58;12.20;;;21.30;53.80;;;;;;5014887;28;88355;-90
2022/12/17 20:08:38;;;;;;;17.95;12.48;;;21.30;53.70;;;;;;5014079;28;91327;-95
2022/12/17 20:11:32;;;;;;;18.50;11.93;;;21.30;53.90;;;;;;4996911;28;90185;-94
2022/12/17 20:14:12;;;;;;;20.75;13.05;;;21.30;53.80;;;;;;5012928;28;88084;-95
2022/12/17 20:16:59;;;;;;;15.20;11.20;;;21.50;53.60;;;;;;4995998;28;93414;-94
2022/12/17 20:19:45;;;;;;;15.73;10.93;;;21.60;53.60;;;;;;4971107;28;91695;-93
2022/12/17 20:22:10;;;;;;;24.75;11.00;;;21.80;53.50;;;;;;4972779;28;91621;-93
2022/12/17 20:24:38;;;;;;;14.82;10.90;;;21.90;53.20;;;;;;4981547;28;87276;-94
2022/12/17 20:27:04;;;;;;;20.40;10.93;;;22.00;53.10;;;;;;4959328;28;90523;-95
2022/12/17 20:29:30;;;;;;;16.25;11.00;;;22.10;53.70;;;;;;4971570;28;92011;-95
2022/12/17 20:32:05;;;;;;;16.52;11.25;;;22.10;52.90;;;;;;4981812;28;91450;-94
2022/12/17 20:34:30;;;;;;;15.90;10.68;;;22.20;52.90;;;;;;4972598;28;88908;-94
2022/12/17 20:36:56;;;;;;;14.90;10.43;;;22.20;52.90;;;;;;4984168;28;90388;-93
2022/12/17 20:39:22;;;;;;;13.32;9.48;;;22.10;53.00;;;;;;4979288;28;89803;-91
2022/12/17 20:41:51;;;;;;;14.20;9.95;;;22.00;52.90;;;;;;4989100;28;90280;-96
2022/12/17 20:44:19;;;;;;;12.35;9.07;;;22.00;53.10;;;;;;4992364;28;87157;-93
2022/12/17 20:47:11;;;;;;;12.57;9.98;;;21.90;53.60;;;;;;4991446;28;89573;-95
2022/12/17 20:49:36;;;;;;;16.75;10.60;;;21.80;53.70;;;;;;4976211;28;95939;-92
2022/12/17 20:52:02;;;;;;;16.48;10.73;;;21.80;53.40;;;;;;4983719;28;91234;-93
2022/12/17 20:54:33;;;;;;;17.13;10.85;;;21.80;53.00;;;;;;4975269;28;88924;-94
2022/12/17 20:56:58;;;;;;;14.68;10.32;;;21.80;53.50;;;;;;4977010;28;89039;-94
2022/12/17 20:59:24;;;;;;;13.70;9.98;;;21.90;53.50;;;;;;4991607;28;91737;-95
2022/12/17 21:01:50;;;;;;;18.65;11.20;;;21.90;53.30;;;;;;5008335;28;91573;-94
2022/12/17 21:04:15;;;;;;;15.48;9.70;;;22.00;53.50;;;;;;4983728;28;87240;-94
2022/12/17 21:06:44;;;;;;;13.10;9.85;;;22.00;53.40;;;;;;4962465;28;90635;-94
2022/12/17 21:09:10;;;;;;;13.85;10.70;;;21.90;53.30;;;;;;4976185;28;89673;-93
2022/12/17 21:11:37;;;;;;;15.65;10.43;;;21.90;53.60;;;;;;4976859;28;89709;-94
2022/12/17 21:14:22;;;;;;;12.30;9.20;;;21.90;53.50;;;;;;4991323;28;87221;-95
2022/12/17 21:16:48;;;;;;;15.32;10.00;;;21.90;53.40;;;;;;5010302;28;89961;-92
2022/12/17 21:19:17;;;;;;;12.70;9.40;;;21.80;53.70;;;;;;4974813;28;91860;-94
2022/12/17 21:21:44;;;;;;;14.40;9.60;;;21.80;53.70;;;;;;4993634;28;88235;-93
2022/12/17 21:24:10;;;;;;;14.30;9.88;;;21.70;53.80;;;;;;4975878;28;87440;-93
2022/12/17 21:26:37;;;;;;;13.75;10.23;;;21.70;53.90;;;;;;5000857;27;89808;-95
2022/12/17 21:29:06;;;;;;;12.98;9.68;;;21.80;53.90;;;;;;5044453;27;91013;-92
2022/12/17 21:31:36;;;;;;;12.60;9.40;;;21.90;53.70;;;;;;5068546;27;90169;-95
2022/12/17 21:34:04;;;;;;;11.73;9.57;;;21.90;53.60;;;;;;5059920;27;87297;-93
2022/12/17 21:36:31;;;;;;;10.65;9.10;;;22.00;53.70;;;;;;5067772;27;90259;-94
2022/12/17 21:38:58;;;;;;;11.70;8.82;;;22.00;53.60;;;;;;5060765;27;91453;-93
2022/12/17 21:43:00;;;;;;;13.55;9.30;;;22.00;54.20;;;;;;5068093;27;90512;-93
2022/12/17 21:44:33;;;;;;;17.95;9.07;;;21.90;53.60;;;;;;5033813;27;87925;-92
2022/12/17 21:46:59;;;;;;;13.57;9.35;;;21.90;53.60;;;;;;5068283;27;90798;-94
2022/12/17 21:49:25;;;;;;;14.25;9.45;;;21.90;53.80;;;;;;5067829;27;90856;-95
2022/12/17 21:51:50;;;;;;;14.10;10.73;;;21.80;53.90;;;;;;5067241;27;90324;-90
2022/12/17 21:54:16;;;;;;;15.27;11.02;;;21.90;52.60;;;;;;5030291;28;94545;-92
2022/12/17 21:56:41;;;;;;;14.95;10.07;;;21.80;48.60;;;;;;5032213;27;89874;-91
2022/12/17 21:59:09;;;;;;;11.18;9.45;;;21.70;50.80;;;;;;5032301;27;89788;-95
2022/12/17 22:01:35;;;;;;;13.38;10.23;;;21.60;52.20;;;;;;5067833;27;89547;-92
2022/12/17 22:04:18;;;;;;;15.43;10.32;;;21.50;52.70;;;;;;5031973;28;94141;-90
2022/12/17 22:06:44;;;;;;;14.85;9.52;;;21.40;52.90;;;;;;5032389;27;90901;-92
2022/12/17 22:09:10;;;;;;;11.85;9.43;;;21.30;52.70;;;;;;5066493;27;92075;-90
2022/12/17 22:11:36;;;;;;;12.63;9.25;;;21.30;52.70;;;;;;5066456;27;90822;-89
2022/12/17 22:14:01;;;;;;;13.40;10.20;;;21.20;52.90;;;;;;5069011;27;87103;-92
2022/12/17 22:16:42;;;;;;;11.98;9.30;;;21.10;52.90;;;;;;5037001;28;89468;-92
2022/12/17 22:19:09;;;;;;;11.70;9.15;;;21.10;53.00;;;;;;5036303;27;90136;-93
2022/12/17 22:21:37;;;;;;;12.35;9.55;;;21.00;53.10;;;;;;5068687;27;91641;-90
2022/12/17 22:24:04;;;;;;;11.85;9.43;;;21.00;53.20;;;;;;5037180;27;87049;-95
2022/12/17 22:26:30;;;;;;;12.82;9.35;;;20.90;53.30;;;;;;5069995;27;89103;-93
2022/12/17 22:28:56;;;;;;;12.90;9.82;;;20.80;53.30;;;;;;5071716;27;91474;-92
2022/12/17 22:34:26;;;;;;;12.30;8.98;;;20.80;53.30;;;;;;5037744;28;88009;-93
2022/12/17 22:36:52;;;;;;;13.48;9.75;;;20.70;53.30;;;;;;5064741;27;89023;-92
2022/12/17 22:39:17;;;;;;;12.07;9.27;;;20.70;53.40;;;;;;5050056;27;91510;-90
2022/12/17 22:44:27;;;;;;;11.32;8.52;;;20.60;53.30;;;;;;5065778;27;87307;-91
2022/12/17 22:47:00;;;;;;;11.02;8.80;;;20.60;53.40;;;;;;5046927;27;89962;-90
2022/12/17 22:49:26;;;;;;;12.63;9.77;;;20.50;53.40;;;;;;5046226;27;94155;-90
2022/12/17 22:51:52;;;;;;;12.80;9.73;;;20.50;53.60;;;;;;5048011;27;91218;-89
2022/12/17 22:54:17;;;;;;;11.52;9.25;;;20.50;53.50;;;;;;5048996;27;87554;-93
2022/12/17 22:56:43;;;;;;;11.00;9.10;;;20.50;53.70;;;;;;5046345;27;89996;-93
2022/12/17 22:59:15;;;;;;;10.20;8.60;;;20.40;53.50;;;;;;5046842;27;90869;-92
2022/12/17 23:01:41;;;;;;;12.02;9.00;;;20.40;53.50;;;;;;5047945;27;92226;-89
2022/12/17 23:04:10;;;;;;;15.77;9.07;;;20.40;53.50;;;;;;5047559;27;87886;-93
2022/12/17 23:06:36;;;;;;;12.35;9.10;;;20.30;53.50;;;;;;5048334;27;90003;-94
2022/12/17 23:09:01;;;;;;;11.55;8.90;;;20.30;53.60;;;;;;5028174;27;90957;-94
2022/12/17 23:11:27;;;;;;;13.02;9.00;;;20.30;53.70;;;;;;5070025;27;90062;-93
2022/12/17 23:13:53;;;;;;;11.18;9.20;;;20.20;53.70;;;;;;5053417;27;87720;-90
2022/12/17 23:16:19;;;;;;;10.38;9.07;;;20.20;53.80;;;;;;5070877;27;89956;-91
2022/12/17 23:18:46;;;;;;;10.90;9.23;;;20.20;53.80;;;;;;5069308;27;89967;-93
2022/12/17 23:21:37;;;;;;;11.10;9.13;;;20.10;53.60;;;;;;5070001;27;89230;-92
2022/12/17 23:24:03;;;;;;;10.57;8.40;;;20.10;54.40;;;;;;5035664;27;88430;-92
2022/12/17 23:26:31;;;;;;;11.65;9.50;;;20.10;53.60;;;;;;5068538;27;90063;-93
2022/12/17 23:29:00;;;;;;;11.23;8.68;;;20.10;53.60;;;;;;5069977;27;91731;-89
2022/12/17 23:31:32;;;;;;;10.13;8.48;;;20.00;53.50;;;;;;5070403;27;92530;-89
2022/12/17 23:33:57;;;;;;;11.00;8.43;;;20.00;53.50;;;;;;5058722;27;87367;-92
2022/12/17 23:36:24;;;;;;;11.63;8.95;;;20.00;53.50;;;;;;5069256;27;90319;-94
2022/12/17 23:38:51;;;;;;;12.25;9.18;;;19.90;53.60;;;;;;5062387;27;90510;-93
2022/12/17 23:41:19;;;;;;;11.45;8.75;;;19.90;53.60;;;;;;5054268;27;90889;-94
2022/12/17 23:43:47;;;;;;;11.43;9.37;;;19.90;53.70;;;;;;5054162;27;86988;-93
2022/12/17 23:46:13;;;;;;;12.43;8.77;;;19.90;53.70;;;;;;5044296;27;89816;-92
2022/12/17 23:48:46;;;;;;;13.55;8.82;;;19.90;53.60;;;;;;5046748;27;92603;-90
2022/12/17 23:51:14;;;;;;;10.25;8.60;;;19.80;53.80;;;;;;5052964;27;92153;-91
2022/12/17 23:53:40;;;;;;;10.43;9.18;;;19.80;53.50;;;;;;5054717;27;87508;-91
2022/12/17 23:56:06;;;;;;;9.85;8.70;;;19.80;53.70;;;;;;5049282;27;89169;-96
2022/12/17 23:58:32;;;;;;;10.15;8.90;;;19.80;53.60;;;;;;5050580;27;90358;-89
